Time;durP1;ratioP1;P1;durP2;ratioP2;P2;SDS_P1;SDS_P2;PMS_P1;PMS_P2;Temp;Humidity;BMP_temperature;BMP_pressure;BME280_temperature;BME280_humidity;BME280_pressure;Samples;Min_cycle;Max_cycle;Signal;HPM_P1;HPM_P2
2023/06/07 00:01:42;;;;;;;5.27;4.83;;;16.80;99.90;;;;;;5076893;28;20529;-76
2023/06/07 00:04:11;;;;;;;7.73;5.63;;;17.10;99.90;;;;;;5076943;28;20467;-76
2023/06/07 00:06:42;;;;;;;5.93;5.43;;;17.00;99.90;;;;;;5074826;28;20464;-77
2023/06/07 00:09:13;;;;;;;5.93;5.40;;;17.00;99.90;;;;;;5076799;28;20414;-77
2023/06/07 00:11:42;;;;;;;6.33;5.83;;;16.90;99.90;;;;;;5079517;28;20476;-77
2023/06/07 00:14:13;;;;;;;6.43;5.83;;;16.80;99.90;;;;;;5082340;28;20451;-77
2023/06/07 00:16:44;;;;;;;5.80;5.40;;;16.80;99.90;;;;;;5086288;28;20460;-77
2023/06/07 00:19:12;;;;;;;6.63;5.87;;;16.70;99.90;;;;;;5083151;28;20460;-77
2023/06/07 00:21:40;;;;;;;5.17;4.77;;;16.70;99.90;;;;;;5084034;28;20477;-76
2023/06/07 00:24:10;;;;;;;6.10;5.70;;;16.60;99.90;;;;;;5088144;28;20453;-77
2023/06/07 00:26:39;;;;;;;6.00;5.60;;;16.60;99.90;;;;;;5087547;28;20417;-77
2023/06/07 00:29:07;;;;;;;6.47;5.87;;;16.60;99.90;;;;;;5087334;28;20971;-77
2023/06/07 00:31:35;;;;;;;6.17;5.77;;;16.60;99.90;;;;;;5088856;28;21123;-76
2023/06/07 00:34:05;;;;;;;6.20;5.70;;;16.60;99.90;;;;;;5087347;28;20466;-76
2023/06/07 00:36:34;;;;;;;5.70;5.27;;;16.50;99.90;;;;;;5083953;28;20478;-78
2023/06/07 00:39:02;;;;;;;5.67;5.27;;;16.10;99.90;;;;;;5079764;28;20516;-76
2023/06/07 00:41:32;;;;;;;5.63;5.23;;;16.50;99.90;;;;;;5080132;28;20484;-76
2023/06/07 00:44:02;;;;;;;5.83;5.40;;;16.80;99.90;;;;;;5080565;28;20498;-77
2023/06/07 00:46:32;;;;;;;5.50;5.10;;;16.40;99.90;;;;;;5081969;28;20448;-75
2023/06/07 00:49:00;;;;;;;5.40;5.10;;;16.40;99.90;;;;;;5078157;28;20461;-77
2023/06/07 00:51:39;;;;;;;5.93;5.40;;;16.40;99.90;;;;;;5075979;28;20469;-77
2023/06/07 00:54:09;;;;;;;5.90;5.33;;;16.30;99.90;;;;;;5074563;28;20453;-76
2023/06/07 00:56:37;;;;;;;5.67;5.27;;;16.30;99.90;;;;;;5074411;28;20456;-77
2023/06/07 00:59:04;;;;;;;6.00;5.60;;;16.30;99.90;;;;;;5074432;28;20467;-76
2023/06/07 01:01:33;;;;;;;5.80;5.27;;;16.30;99.90;;;;;;5077621;28;20480;-78
2023/06/07 01:04:01;;;;;;;5.50;5.10;;;16.30;99.90;;;;;;5076207;28;20944;-76
2023/06/07 01:06:33;;;;;;;5.50;5.20;;;16.30;99.90;;;;;;5075665;28;20509;-77
2023/06/07 01:09:12;;;;;;;6.13;5.60;;;16.30;99.90;;;;;;5075673;28;20459;-76
2023/06/07 01:11:43;;;;;;;5.97;5.43;;;16.30;99.90;;;;;;5074427;28;20472;-77
2023/06/07 01:14:22;;;;;;;5.87;5.47;;;16.10;99.90;;;;;;5076691;28;20472;-77
2023/06/07 01:17:02;;;;;;;6.33;5.73;;;16.00;99.90;;;;;;5076767;28;20785;-78
2023/06/07 01:19:36;;;;;;;6.90;5.87;;;15.90;99.90;;;;;;5074240;28;20499;-78
2023/06/07 01:25:16;;;;;;;6.70;6.20;;;15.90;99.90;;;;;;5075219;28;20458;-77
2023/06/07 01:27:52;;;;;;;7.00;6.33;;;15.90;99.90;;;;;;5082184;28;20455;-76
2023/06/07 01:30:31;;;;;;;6.30;5.80;;;15.80;99.90;;;;;;5083154;28;20532;-77
2023/06/07 01:33:16;;;;;;;6.30;5.90;;;15.70;99.90;;;;;;5080914;28;20556;-77
2023/06/07 01:35:56;;;;;;;6.40;5.90;;;15.70;99.90;;;;;;5081850;28;20444;-76
2023/06/07 01:38:28;;;;;;;6.20;5.70;;;15.70;99.90;;;;;;5080765;28;20532;-77
2023/06/07 01:41:15;;;;;;;6.13;5.67;;;15.70;99.90;;;;;;5080641;28;20479;-76
2023/06/07 01:43:53;;;;;;;6.70;5.93;;;15.70;99.90;;;;;;5077918;28;20456;-77
2023/06/07 01:46:42;;;;;;;7.60;7.00;;;15.60;99.90;;;;;;5076120;28;20452;-77
2023/06/07 01:49:23;;;;;;;6.50;6.07;;;15.60;99.90;;;;;;5075367;28;20611;-76
2023/06/07 01:52:01;;;;;;;6.23;5.83;;;15.20;99.90;;;;;;5075576;28;20456;-77
2023/06/07 01:54:38;;;;;;;6.30;5.90;;;15.50;99.90;;;;;;5075356;28;20523;-76
2023/06/07 01:57:19;;;;;;;6.97;6.47;;;15.40;99.90;;;;;;5075096;28;20448;-77
2023/06/07 02:00:04;;;;;;;6.53;6.00;;;15.50;99.90;;;;;;5076581;28;20452;-76
2023/06/07 02:03:16;;;;;;;6.40;6.00;;;15.40;99.90;;;;;;5078309;28;20480;-77
2023/06/07 02:06:00;;;;;;;6.60;6.10;;;15.50;99.90;;;;;;5078882;28;20482;-77
2023/06/07 02:08:40;;;;;;;7.13;6.50;;;15.40;99.90;;;;;;5079504;28;20521;-77
2023/06/07 02:11:10;;;;;;;6.90;6.40;;;15.50;99.90;;;;;;5079086;28;20789;-78
2023/06/07 02:13:47;;;;;;;6.93;6.43;;;15.50;99.90;;;;;;5084051;28;20467;-77
2023/06/07 02:16:42;;;;;;;7.40;6.90;;;15.40;99.90;;;;;;5088250;28;20511;-76
2023/06/07 02:19:13;;;;;;;7.27;6.60;;;15.40;99.90;;;;;;5088555;28;20433;-77
2023/06/07 02:21:43;;;;;;;6.80;6.30;;;15.30;99.90;;;;;;5088729;28;20476;-77
2023/06/07 02:24:14;;;;;;;7.83;7.13;;;15.20;99.90;;;;;;5085560;28;20552;-78
2023/06/07 02:26:46;;;;;;;7.17;6.67;;;15.20;99.90;;;;;;5085319;28;20479;-77
2023/06/07 02:29:20;;;;;;;7.40;6.90;;;15.20;99.90;;;;;;5085336;28;20455;-78
2023/06/07 02:31:57;;;;;;;7.87;7.17;;;15.20;99.90;;;;;;5087138;28;20488;-77
2023/06/07 02:34:39;;;;;;;7.90;7.13;;;15.10;99.90;;;;;;5087279;28;20445;-77
2023/06/07 02:37:17;;;;;;;7.00;6.50;;;15.10;99.90;;;;;;5072865;28;20449;-77
2023/06/07 02:39:45;;;;;;;7.83;7.10;;;15.10;99.90;;;;;;5070280;28;20798;-77
2023/06/07 02:45:22;;;;;;;6.90;6.40;;;15.00;99.90;;;;;;5074090;28;20455;-77
2023/06/07 02:48:18;;;;;;;;;;;;;;;;;;;;;
2023/06/07 02:51:12;;;;;;;7.90;7.30;;;14.90;99.90;;;;;;5083886;28;20440;-76
2023/06/07 02:53:51;;;;;;;8.27;7.67;;;14.90;99.90;;;;;;5082618;28;20445;-77
2023/06/07 02:56:19;;;;;;;7.03;6.53;;;14.80;99.90;;;;;;5081236;28;20509;-77
2023/06/07 02:59:02;;;;;;;7.80;7.27;;;14.70;99.90;;;;;;5082035;28;20474;-78
2023/06/07 03:01:39;;;;;;;7.83;7.23;;;14.50;99.90;;;;;;5078162;28;20476;-76
2023/06/07 03:04:16;;;;;;;7.87;7.17;;;14.50;99.90;;;;;;5080652;28;20452;-77
2023/06/07 03:06:57;;;;;;;8.27;7.67;;;14.40;99.90;;;;;;5083738;28;20449;-77
2023/06/07 03:09:24;;;;;;;8.70;8.00;;;14.40;99.90;;;;;;5082228;28;20452;-77
2023/06/07 03:12:03;;;;;;;8.30;7.70;;;14.40;99.90;;;;;;5082448;28;20486;-76
2023/06/07 03:14:41;;;;;;;9.83;8.40;;;14.30;99.90;;;;;;5082244;28;20460;-77
2023/06/07 03:17:13;;;;;;;7.97;7.37;;;14.30;99.90;;;;;;5083675;28;20471;-78
2023/06/07 03:19:48;;;;;;;8.80;8.00;;;14.40;99.90;;;;;;5077163;28;20449;-77
2023/06/07 03:22:16;;;;;;;8.77;8.07;;;14.40;99.90;;;;;;5063137;28;20549;-78
2023/06/07 03:24:49;;;;;;;8.40;7.70;;;14.30;99.90;;;;;;5063764;28;20442;-78
2023/06/07 03:27:27;;;;;;;8.20;7.50;;;14.40;99.90;;;;;;5082128;28;20471;-77
2023/06/07 03:29:55;;;;;;;8.83;8.13;;;14.40;99.90;;;;;;5081999;28;20464;-77
2023/06/07 03:32:33;;;;;;;7.87;7.27;;;14.40;99.90;;;;;;5081242;28;20473;-77
2023/06/07 03:35:09;;;;;;;7.80;7.30;;;14.40;99.90;;;;;;5079338;28;20804;-76
2023/06/07 03:37:36;;;;;;;8.30;7.60;;;14.40;99.90;;;;;;5083033;28;20498;-76
2023/06/07 03:40:06;;;;;;;8.10;7.43;;;14.40;99.90;;;;;;5083400;28;20480;-76
2023/06/07 03:45:22;;;;;;;8.10;7.50;;;14.40;99.90;;;;;;5081307;28;20472;-77
2023/06/07 03:48:01;;;;;;;8.40;7.70;;;14.40;99.90;;;;;;5083773;28;20421;-76
2023/06/07 03:50:35;;;;;;;8.50;7.73;;;14.40;99.90;;;;;;5083048;28;20559;-76
2023/06/07 03:53:07;;;;;;;8.50;7.80;;;14.40;99.90;;;;;;5082825;28;20436;-76
2023/06/07 03:55:41;;;;;;;8.93;7.90;;;14.40;99.90;;;;;;5083933;28;20476;-77
2023/06/07 03:58:18;;;;;;;8.10;7.50;;;14.40;99.90;;;;;;5082769;28;20445;-77
2023/06/07 04:00:55;;;;;;;8.33;7.67;;;14.40;99.90;;;;;;5084301;28;20452;-77
2023/06/07 04:03:28;;;;;;;8.80;8.20;;;14.40;99.90;;;;;;5079181;28;20473;-77
2023/06/07 04:06:01;;;;;;;8.87;8.10;;;14.70;99.90;;;;;;5084610;28;20448;-77
2023/06/07 04:11:16;;;;;;;9.27;8.47;;;14.40;99.90;;;;;;5083761;28;20859;-77
2023/06/07 04:13:45;;;;;;;8.80;8.07;;;14.40;99.90;;;;;;5084245;28;20862;-78
2023/06/07 04:16:38;;;;;;;8.70;8.00;;;14.40;99.90;;;;;;5085666;28;20447;-76
2023/06/07 04:19:27;;;;;;;9.07;8.20;;;14.40;99.90;;;;;;5085938;28;20435;-77
2023/06/07 04:22:24;;;;;;;9.10;8.10;;;14.40;99.90;;;;;;5086215;28;20468;-77
2023/06/07 04:24:52;;;;;;;9.73;8.83;;;14.40;99.90;;;;;;5082132;28;20448;-77
2023/06/07 04:33:14;;;;;;;9.97;9.17;;;14.50;99.90;;;;;;5073249;28;20436;-77
2023/06/07 04:35:45;;;;;;;10.70;9.90;;;14.60;99.90;;;;;;5083277;28;20453;-78
2023/06/07 04:38:20;;;;;;;9.80;9.10;;;14.60;99.90;;;;;;5083120;28;20472;-79
2023/06/07 04:40:55;;;;;;;10.87;9.40;;;14.70;99.90;;;;;;5081788;28;20974;-77
2023/06/07 04:43:26;;;;;;;9.73;8.93;;;14.70;99.90;;;;;;5083340;28;20476;-78
2023/06/07 04:45:55;;;;;;;9.67;8.90;;;14.80;99.90;;;;;;5083114;28;20951;-78
2023/06/07 04:48:55;;;;;;;9.83;9.00;;;14.80;99.90;;;;;;5083553;28;20510;-77
2023/06/07 04:51:30;;;;;;;10.43;9.63;;;14.90;99.90;;;;;;5046737;28;20479;-78
2023/06/07 04:53:58;;;;;;;10.83;9.93;;;14.90;99.90;;;;;;5083162;28;20486;-79
2023/06/07 04:56:43;;;;;;;10.47;9.67;;;14.90;99.90;;;;;;5084061;28;20473;-77
2023/06/07 04:59:10;;;;;;;10.40;9.50;;;15.00;99.90;;;;;;5084241;28;20473;-78
2023/06/07 05:01:40;;;;;;;10.93;10.13;;;15.10;99.90;;;;;;5084976;28;20503;-79
2023/06/07 05:04:16;;;;;;;10.37;9.57;;;15.10;99.90;;;;;;5085351;28;20533;-77
2023/06/07 05:07:02;;;;;;;10.97;9.97;;;15.10;99.90;;;;;;5086031;28;20995;-79
2023/06/07 05:09:33;;;;;;;11.10;10.20;;;15.20;99.90;;;;;;5085842;28;20784;-79
2023/06/07 05:12:00;;;;;;;12.30;10.10;;;15.20;99.90;;;;;;5085377;28;20481;-78
2023/06/07 05:14:34;;;;;;;10.90;10.00;;;15.30;99.90;;;;;;5084088;28;20443;-78
2023/06/07 05:17:19;;;;;;;12.47;11.37;;;15.40;99.90;;;;;;5083890;28;20963;-77
2023/06/07 05:19:47;;;;;;;11.83;10.93;;;15.40;99.90;;;;;;5083630;28;20461;-78
2023/06/07 05:22:21;;;;;;;11.80;10.80;;;15.50;99.90;;;;;;5084968;28;20536;-78
2023/06/07 05:25:00;;;;;;;12.97;11.87;;;15.50;99.90;;;;;;5087480;28;20454;-77
2023/06/07 05:30:33;;;;;;;13.23;12.10;;;15.70;99.90;;;;;;5079831;28;20479;-78
2023/06/07 05:33:18;;;;;;;13.70;12.70;;;15.80;99.90;;;;;;5088439;28;20467;-79
2023/06/07 05:35:52;;;;;;;14.47;12.90;;;15.70;99.90;;;;;;5090336;28;20524;-77
2023/06/07 05:41:21;;;;;;;15.33;13.83;;;15.60;99.90;;;;;;5085357;28;20445;-76
2023/06/07 05:43:49;;;;;;;14.70;13.50;;;15.80;99.90;;;;;;5084449;28;20516;-79
2023/06/07 05:46:21;;;;;;;13.83;12.63;;;16.00;99.90;;;;;;5082460;28;20490;-77
2023/06/07 05:48:50;;;;;;;14.60;13.30;;;16.20;99.90;;;;;;5075817;28;20460;-78
2023/06/07 05:51:19;;;;;;;14.50;13.20;;;16.00;99.90;;;;;;5075159;28;20468;-78
2023/06/07 05:53:55;;;;;;;15.10;13.60;;;16.20;99.90;;;;;;5063693;28;20551;-77
2023/06/07 05:56:27;;;;;;;16.17;14.67;;;16.40;99.90;;;;;;5077438;28;20963;-77
2023/06/07 05:59:09;;;;;;;14.00;12.97;;;16.40;99.90;;;;;;5078309;28;20479;-77
2023/06/07 06:04:57;;;;;;;;;;;;;;;;;;;;;
2023/06/07 06:07:31;;;;;;;14.50;13.20;;;16.40;99.90;;;;;;5082352;28;20439;-77
2023/06/07 06:10:05;;;;;;;13.07;12.07;;;16.60;99.90;;;;;;5079477;28;20959;-78
2023/06/07 06:12:36;;;;;;;13.20;12.10;;;16.60;99.90;;;;;;5078117;28;21006;-77
2023/06/07 06:15:09;;;;;;;14.20;12.87;;;16.80;99.90;;;;;;5067772;28;20521;-78
2023/06/07 06:17:51;;;;;;;32.03;13.00;;;17.00;99.90;;;;;;5060156;28;20450;-77
2023/06/07 06:20:40;;;;;;;14.23;12.87;;;17.10;99.90;;;;;;5059314;28;20499;-77
2023/06/07 06:23:12;;;;;;;14.27;12.87;;;17.10;99.90;;;;;;5056386;28;20474;-78
2023/06/07 06:25:55;;;;;;;12.90;11.90;;;17.20;99.90;;;;;;5057799;28;20457;-78
2023/06/07 06:28:29;;;;;;;14.70;13.20;;;17.20;99.90;;;;;;5057009;28;20493;-77
2023/06/07 06:31:03;;;;;;;10.90;9.90;;;17.40;99.90;;;;;;5062055;28;20817;-78
2023/06/07 06:33:30;;;;;;;16.07;14.80;;;17.50;99.90;;;;;;5065459;28;20480;-76
2023/06/07 06:35:59;;;;;;;10.60;9.80;;;17.60;99.90;;;;;;5064884;28;21016;-77
2023/06/07 06:38:27;;;;;;;13.60;10.13;;;17.60;99.90;;;;;;5065604;28;20893;-77
2023/06/07 06:40:58;;;;;;;10.57;9.77;;;17.60;99.90;;;;;;5064549;28;20465;-76
2023/06/07 06:43:25;;;;;;;12.63;11.57;;;17.80;99.90;;;;;;5065732;28;20470;-77
2023/06/07 06:45:55;;;;;;;10.77;9.97;;;17.90;99.90;;;;;;5065867;28;20469;-78
2023/06/07 06:48:27;;;;;;;9.07;8.47;;;18.00;99.90;;;;;;5065738;28;20449;-78
2023/06/07 06:50:54;;;;;;;12.30;10.53;;;18.10;99.90;;;;;;5064305;28;20468;-78
2023/06/07 06:53:22;;;;;;;11.60;10.60;;;17.90;99.90;;;;;;5062188;28;20466;-77
2023/06/07 06:55:56;;;;;;;11.67;10.87;;;18.00;99.90;;;;;;5057067;28;20440;-78
2023/06/07 06:58:34;;;;;;;12.10;10.80;;;18.10;99.90;;;;;;5056380;28;20460;-77
2023/06/07 07:01:03;;;;;;;11.30;10.40;;;18.20;99.90;;;;;;5055459;28;20481;-78
2023/06/07 07:03:33;;;;;;;10.90;10.10;;;18.40;99.90;;;;;;5056890;28;20519;-79
2023/06/07 07:06:00;;;;;;;11.37;10.17;;;18.40;99.90;;;;;;5060100;28;20517;-78
2023/06/07 07:08:27;;;;;;;12.43;11.33;;;18.50;99.90;;;;;;5064393;28;20461;-79
2023/06/07 07:10:54;;;;;;;11.77;10.87;;;18.50;99.90;;;;;;5063115;28;20457;-78
2023/06/07 07:13:21;;;;;;;11.67;10.77;;;18.70;99.90;;;;;;5064080;28;20445;-77
2023/06/07 07:15:49;;;;;;;11.33;10.33;;;18.70;99.90;;;;;;5061796;28;20454;-76
2023/06/07 07:18:20;;;;;;;9.90;9.10;;;18.70;99.90;;;;;;5061323;28;20975;-79
2023/06/07 07:20:47;;;;;;;9.37;8.60;;;18.90;99.90;;;;;;5061022;28;20519;-77
2023/06/07 07:23:14;;;;;;;9.50;8.80;;;18.90;99.90;;;;;;5061418;28;20465;-79
2023/06/07 07:25:42;;;;;;;8.53;7.73;;;18.90;99.90;;;;;;5063743;28;20469;-79
2023/06/07 07:28:09;;;;;;;8.13;7.50;;;19.00;99.90;;;;;;5064032;28;20438;-79
2023/06/07 07:30:36;;;;;;;7.00;6.40;;;19.10;99.90;;;;;;5064302;28;20437;-77
2023/06/07 07:33:07;;;;;;;9.03;7.50;;;19.40;99.90;;;;;;5065432;28;20514;-78
2023/06/07 07:35:34;;;;;;;6.97;6.57;;;19.50;99.90;;;;;;5064551;28;20457;-78
2023/06/07 07:38:07;;;;;;;7.47;6.97;;;19.50;99.90;;;;;;5063675;28;20445;-79
2023/06/07 07:40:35;;;;;;;6.33;5.83;;;19.50;99.90;;;;;;5063115;28;20429;-79
2023/06/07 07:43:02;;;;;;;5.60;5.20;;;19.50;99.90;;;;;;5062753;28;20445;-77
2023/06/07 07:45:31;;;;;;;6.47;6.03;;;19.70;99.90;;;;;;5063614;28;20476;-78
2023/06/07 07:47:58;;;;;;;6.20;5.80;;;19.80;99.90;;;;;;5063910;28;20448;-78
2023/06/07 07:50:27;;;;;;;6.20;5.80;;;19.90;99.90;;;;;;5064378;28;20544;-77
2023/06/07 07:52:56;;;;;;;6.03;5.63;;;20.00;99.90;;;;;;5063302;28;20426;-78
2023/06/07 07:55:24;;;;;;;5.77;5.37;;;19.80;99.90;;;;;;5055024;28;20918;-77
2023/06/07 07:57:56;;;;;;;5.40;5.00;;;20.10;99.90;;;;;;5053393;28;20825;-76
2023/06/07 08:00:33;;;;;;;5.40;5.00;;;20.00;99.90;;;;;;5055388;28;20529;-79
2023/06/07 08:03:08;;;;;;;5.00;4.70;;;20.10;99.90;;;;;;5053714;28;20457;-77
2023/06/07 08:05:38;;;;;;;5.20;4.80;;;20.20;99.90;;;;;;5053332;28;20436;-78
2023/06/07 08:08:12;;;;;;;5.03;4.63;;;20.30;99.90;;;;;;5059197;28;20454;-77
2023/06/07 08:10:48;;;;;;;4.60;4.40;;;19.90;99.90;;;;;;5062679;28;20900;-76
2023/06/07 08:13:16;;;;;;;6.27;5.10;;;20.10;99.90;;;;;;5057868;28;20414;-75
2023/06/07 08:15:47;;;;;;;5.57;5.17;;;20.30;99.90;;;;;;5058354;28;20475;-77
2023/06/07 08:18:18;;;;;;;5.33;5.03;;;20.50;99.90;;;;;;5059373;28;20503;-77
2023/06/07 08:20:53;;;;;;;5.40;5.10;;;20.60;99.90;;;;;;5054303;28;20453;-77
2023/06/07 08:23:21;;;;;;;4.77;4.57;;;20.70;99.90;;;;;;5054664;28;20511;-76
2023/06/07 08:25:57;;;;;;;4.80;4.40;;;20.80;99.90;;;;;;5062103;28;20445;-77
2023/06/07 08:28:37;;;;;;;4.50;4.20;;;21.00;99.90;;;;;;5059396;28;20484;-76
2023/06/07 08:31:22;;;;;;;4.47;4.17;;;21.20;99.90;;;;;;5053825;28;20476;-78
2023/06/07 08:33:54;;;;;;;4.17;3.83;;;21.40;99.90;;;;;;5057285;28;20540;-77
2023/06/07 08:36:26;;;;;;;3.20;3.00;;;21.50;99.90;;;;;;5061681;28;20484;-76
2023/06/07 08:38:54;;;;;;;3.67;3.47;;;21.50;99.90;;;;;;5057584;28;20422;-78
2023/06/07 08:41:23;;;;;;;4.33;4.03;;;21.60;99.90;;;;;;5058809;28;20469;-77
2023/06/07 08:43:55;;;;;;;3.50;3.30;;;21.70;99.90;;;;;;5063698;28;20523;-77
2023/06/07 08:46:24;;;;;;;4.03;3.83;;;21.40;99.90;;;;;;5059212;28;20457;-77
2023/06/07 08:48:53;;;;;;;4.07;3.87;;;21.50;99.90;;;;;;5060742;28;20430;-78
2023/06/07 08:51:23;;;;;;;4.10;3.80;;;21.60;99.90;;;;;;5062011;28;20496;-77
2023/06/07 08:53:57;;;;;;;3.47;3.27;;;21.80;99.90;;;;;;5065752;28;20438;-76
2023/06/07 08:56:31;;;;;;;2.80;2.70;;;22.10;99.90;;;;;;5064140;28;20481;-78
2023/06/07 08:59:06;;;;;;;3.00;2.90;;;22.20;99.90;;;;;;5065463;28;20479;-77
2023/06/07 09:01:39;;;;;;;2.70;2.60;;;22.40;99.90;;;;;;5066077;28;20531;-77
2023/06/07 09:04:14;;;;;;;2.60;2.20;;;22.30;99.90;;;;;;5065701;28;20481;-76
2023/06/07 09:06:46;;;;;;;2.73;2.20;;;22.20;99.90;;;;;;5066211;28;20449;-77
2023/06/07 09:09:20;;;;;;;2.63;2.43;;;22.40;99.90;;;;;;5065489;28;20507;-79
2023/06/07 09:11:53;;;;;;;3.30;3.10;;;22.70;99.90;;;;;;5061394;28;20504;-77
2023/06/07 09:14:22;;;;;;;3.43;3.23;;;22.70;99.90;;;;;;5059877;28;20445;-77
2023/06/07 09:16:55;;;;;;;2.90;2.80;;;22.90;99.90;;;;;;5060365;28;20452;-76
2023/06/07 09:19:35;;;;;;;2.50;2.30;;;23.20;99.90;;;;;;5069951;28;20480;-76
2023/06/07 09:22:06;;;;;;;3.43;3.10;;;23.20;99.90;;;;;;5073760;28;20481;-77
2023/06/07 09:24:36;;;;;;;2.87;2.67;;;23.50;99.90;;;;;;5073495;28;21145;-78
2023/06/07 09:27:15;;;;;;;2.60;2.50;;;24.00;99.90;;;;;;5076346;28;20487;-77
2023/06/07 09:29:44;;;;;;;5.77;3.57;;;24.30;99.90;;;;;;5077455;28;20451;-76
2023/06/07 09:32:23;;;;;;;3.70;3.50;;;23.80;99.90;;;;;;5077254;28;20479;-76
2023/06/07 09:35:15;;;;;;;2.80;2.60;;;23.40;99.90;;;;;;5079685;28;20514;-77
2023/06/07 09:37:48;;;;;;;2.87;2.60;;;23.10;99.90;;;;;;5076541;28;20460;-76
2023/06/07 09:40:25;;;;;;;2.70;2.60;;;23.90;99.90;;;;;;5075825;28;20479;-77
2023/06/07 09:43:05;;;;;;;3.40;2.50;;;23.90;99.90;;;;;;5075261;28;20468;-80
2023/06/07 09:45:34;;;;;;;2.70;2.50;;;23.90;99.90;;;;;;5075326;28;20488;-77
2023/06/07 09:48:06;;;;;;;2.80;2.60;;;23.50;99.90;;;;;;5074822;28;20548;-76
2023/06/07 09:50:55;;;;;;;2.30;2.20;;;23.90;99.90;;;;;;5074161;28;20445;-75
2023/06/07 09:53:23;;;;;;;2.60;2.40;;;24.40;99.90;;;;;;5055161;28;20783;-77
2023/06/07 09:55:52;;;;;;;2.70;2.50;;;24.90;99.90;;;;;;5054082;28;20460;-78
2023/06/07 09:58:22;;;;;;;2.60;2.50;;;25.10;99.90;;;;;;5055340;28;20456;-79
2023/06/07 10:00:55;;;;;;;2.77;2.67;;;25.00;99.90;;;;;;5056668;28;20539;-77
2023/06/07 10:03:27;;;;;;;2.33;2.23;;;25.40;99.90;;;;;;5054448;28;20452;-77
2023/06/07 10:05:58;;;;;;;2.27;2.17;;;25.70;99.90;;;;;;5055406;28;20485;-77
2023/06/07 10:08:26;;;;;;;2.40;2.30;;;25.90;99.90;;;;;;5060299;28;20450;-78
2023/06/07 10:11:06;;;;;;;2.53;2.20;;;26.00;99.90;;;;;;5059327;28;20477;-75
2023/06/07 10:13:34;;;;;;;2.60;2.50;;;25.20;99.90;;;;;;5057957;28;20472;-76
2023/06/07 10:16:09;;;;;;;2.23;2.13;;;24.80;99.90;;;;;;5056069;28;20442;-78
2023/06/07 10:18:49;;;;;;;2.90;2.70;;;25.50;99.90;;;;;;5078218;28;20532;-77
2023/06/07 10:21:21;;;;;;;4.70;2.47;;;25.60;99.90;;;;;;5072219;28;20480;-75
2023/06/07 10:23:55;;;;;;;2.20;2.10;;;25.30;99.90;;;;;;5071300;28;20456;-75
2023/06/07 10:26:32;;;;;;;2.60;2.50;;;25.40;99.90;;;;;;5074646;28;20482;-76
2023/06/07 10:29:38;;;;;;;3.17;2.93;;;24.80;99.90;;;;;;5080706;28;20486;-76
2023/06/07 10:32:24;;;;;;;4.30;2.87;;;24.30;99.90;;;;;;5078912;28;21000;-78
2023/06/07 10:34:56;;;;;;;2.63;2.53;;;24.10;99.90;;;;;;5075623;28;20460;-76
2023/06/07 10:37:41;;;;;;;3.10;2.90;;;24.60;99.90;;;;;;5073613;28;20838;-78
2023/06/07 10:40:11;;;;;;;2.70;2.50;;;24.30;99.90;;;;;;5082596;28;20451;-77
2023/06/07 10:42:43;;;;;;;3.30;3.10;;;24.90;99.90;;;;;;5078888;28;20440;-79
2023/06/07 10:45:27;;;;;;;2.73;2.63;;;25.70;99.90;;;;;;5081013;28;20495;-78
2023/06/07 10:54:37;;;;;;;2.60;2.50;;;25.70;99.90;;;;;;5081848;28;20444;-77
2023/06/07 10:57:37;;;;;;;3.07;2.87;;;26.00;99.90;;;;;;5082087;28;20526;-78
2023/06/07 11:00:35;;;;;;;3.07;2.87;;;26.30;99.90;;;;;;5083811;28;20452;-78
2023/06/07 11:06:50;;;;;;;2.80;2.60;;;26.70;99.90;;;;;;5074585;28;20448;-76
2023/06/07 11:09:29;;;;;;;2.93;2.67;;;25.90;99.90;;;;;;5083016;28;20421;-76
2023/06/07 11:12:04;;;;;;;4.80;2.70;;;25.40;99.90;;;;;;5078423;28;20475;-78
2023/06/07 11:20:51;;;;;;;2.80;2.60;;;26.50;99.90;;;;;;5064483;28;20452;-75
2023/06/07 11:23:24;;;;;;;2.13;2.03;;;25.60;99.90;;;;;;5058060;28;20442;-78
2023/06/07 11:25:52;;;;;;;2.37;2.27;;;26.20;99.90;;;;;;5062291;28;20469;-78
2023/06/07 11:28:26;;;;;;;2.90;2.53;;;27.00;99.90;;;;;;5063908;28;20513;-77
2023/06/07 11:30:54;;;;;;;2.47;2.37;;;26.70;99.90;;;;;;5064404;28;20470;-77
2023/06/07 11:33:25;;;;;;;2.33;2.00;;;26.70;99.90;;;;;;5063514;28;20485;-78
2023/06/07 11:35:58;;;;;;;2.47;2.30;;;27.80;99.90;;;;;;5065007;28;20431;-79
2023/06/07 11:38:27;;;;;;;2.40;2.30;;;28.20;99.90;;;;;;5064709;28;20468;-77
2023/06/07 11:40:56;;;;;;;3.60;2.53;;;27.50;99.90;;;;;;5065275;28;20504;-78
2023/06/07 11:43:25;;;;;;;3.43;2.50;;;28.30;99.90;;;;;;5063747;28;20446;-77
2023/06/07 11:45:56;;;;;;;2.20;2.10;;;27.60;99.90;;;;;;5063964;28;20862;-78
2023/06/07 11:48:30;;;;;;;2.60;2.50;;;26.40;99.90;;;;;;5065748;28;20483;-76
2023/06/07 11:51:01;;;;;;;2.23;2.13;;;25.90;99.90;;;;;;5068179;28;20499;-77
2023/06/07 11:53:30;;;;;;;2.33;2.23;;;26.70;99.90;;;;;;5067842;28;20553;-75
2023/06/07 11:55:59;;;;;;;3.57;2.30;;;27.20;99.90;;;;;;5066945;28;20464;-79
2023/06/07 11:58:27;;;;;;;3.23;2.40;;;27.80;99.90;;;;;;5067310;28;20457;-78
2023/06/07 12:00:59;;;;;;;2.37;2.17;;;28.20;99.90;;;;;;5066779;28;20475;-78
2023/06/07 12:03:33;;;;;;;2.00;1.90;;;28.80;98.50;;;;;;5065796;28;20450;-77
2023/06/07 12:06:14;;;;;;;2.77;2.23;;;29.10;97.20;;;;;;5064702;28;20480;-75
2023/06/07 12:08:45;;;;;;;3.17;2.37;;;29.00;97.30;;;;;;5070850;28;20997;-76
2023/06/07 12:11:15;;;;;;;2.50;2.40;;;28.10;98.40;;;;;;5071821;28;20504;-77
2023/06/07 12:14:06;;;;;;;4.70;2.50;;;28.00;99.20;;;;;;5071059;28;20457;-77
2023/06/07 12:16:38;;;;;;;15.13;14.00;;;27.90;99.70;;;;;;5069813;28;20449;-76
2023/06/07 12:19:07;;;;;;;2.80;2.60;;;27.50;99.30;;;;;;5068307;28;20434;-77
2023/06/07 12:21:40;;;;;;;3.17;2.93;;;28.40;99.90;;;;;;5065431;28;20474;-77
2023/06/07 12:24:14;;;;;;;2.60;2.40;;;29.00;97.50;;;;;;5064369;28;20446;-75
2023/06/07 12:26:45;;;;;;;2.67;2.50;;;29.30;97.10;;;;;;5063997;28;21308;-76
2023/06/07 12:29:22;;;;;;;2.50;2.40;;;28.80;97.20;;;;;;5063772;28;20457;-77
2023/06/07 12:31:55;;;;;;;2.23;2.13;;;29.00;95.90;;;;;;5060318;28;20494;-77
2023/06/07 12:34:29;;;;;;;2.50;2.30;;;29.10;94.70;;;;;;5060086;28;20459;-78
2023/06/07 12:37:04;;;;;;;2.27;2.17;;;28.40;95.50;;;;;;5058287;28;20442;-75
2023/06/07 12:39:35;;;;;;;2.10;2.00;;;28.40;94.90;;;;;;5060906;28;21019;-76
2023/06/07 12:42:16;;;;;;;2.30;2.20;;;29.10;94.10;;;;;;5061288;28;20478;-76
2023/06/07 12:44:45;;;;;;;2.67;2.37;;;29.40;94.00;;;;;;5056999;28;20462;-76
2023/06/07 12:47:17;;;;;;;2.30;2.17;;;29.60;94.40;;;;;;5057048;28;20500;-77
2023/06/07 12:49:48;;;;;;;2.20;2.10;;;30.20;93.30;;;;;;5058116;28;20486;-75
2023/06/07 12:52:18;;;;;;;2.50;2.40;;;29.70;93.60;;;;;;5057663;28;20524;-75
2023/06/07 12:54:47;;;;;;;2.10;2.00;;;29.60;93.70;;;;;;5054778;28;20455;-76
2023/06/07 12:57:26;;;;;;;2.57;2.47;;;28.10;94.50;;;;;;5055485;28;20425;-75
2023/06/07 12:59:54;;;;;;;2.27;2.17;;;28.00;95.40;;;;;;5055490;28;20465;-76
2023/06/07 13:02:29;;;;;;;2.27;2.10;;;27.60;95.40;;;;;;5055464;28;20466;-77
2023/06/07 13:05:01;;;;;;;2.20;2.10;;;28.20;94.50;;;;;;5056613;28;20551;-77
2023/06/07 13:07:43;;;;;;;3.93;2.40;;;27.90;94.60;;;;;;5063908;28;20469;-77
2023/06/07 13:10:12;;;;;;;2.20;2.10;;;27.90;93.40;;;;;;5066727;28;20477;-75
2023/06/07 13:12:41;;;;;;;2.27;2.07;;;27.70;93.30;;;;;;5066760;28;20481;-75
2023/06/07 13:15:11;;;;;;;2.10;2.00;;;27.80;94.10;;;;;;5069436;28;20889;-75
2023/06/07 13:17:40;;;;;;;2.13;1.93;;;28.80;93.10;;;;;;5068440;28;20458;-77
2023/06/07 13:20:10;;;;;;;2.20;1.90;;;29.00;92.10;;;;;;5075347;28;20812;-76
2023/06/07 13:22:46;;;;;;;1.80;1.63;;;29.30;91.20;;;;;;5088075;28;20472;-74
2023/06/07 13:25:16;;;;;;;2.73;1.80;;;29.60;91.10;;;;;;5087004;28;20474;-77
2023/06/07 13:27:44;;;;;;;2.30;2.10;;;30.10;89.50;;;;;;5086598;28;20587;-77
2023/06/07 13:30:13;;;;;;;1.93;1.83;;;29.90;88.80;;;;;;5085548;28;20449;-77
2023/06/07 13:32:50;;;;;;;2.33;1.70;;;30.00;88.60;;;;;;5086418;28;20468;-77
2023/06/07 13:35:22;;;;;;;3.20;1.93;;;30.00;88.20;;;;;;5086491;28;20453;-77
2023/06/07 13:37:55;;;;;;;2.10;2.00;;;29.60;88.30;;;;;;5081184;28;20460;-77
2023/06/07 13:40:27;;;;;;;2.10;2.00;;;29.60;87.90;;;;;;5075683;28;20449;-75
2023/06/07 13:42:59;;;;;;;1.90;1.80;;;29.60;87.70;;;;;;5076318;28;20438;-76
2023/06/07 13:45:29;;;;;;;2.37;2.17;;;29.60;88.50;;;;;;5084030;28;20995;-77
2023/06/07 13:48:00;;;;;;;1.90;1.80;;;29.60;88.90;;;;;;5083136;28;20512;-75
2023/06/07 13:50:30;;;;;;;1.80;1.70;;;29.70;88.60;;;;;;5083564;28;20450;-74
2023/06/07 13:53:02;;;;;;;2.13;2.03;;;30.20;87.70;;;;;;5076067;28;20500;-76
2023/06/07 13:55:49;;;;;;;2.20;2.10;;;30.60;85.50;;;;;;5078991;28;20489;-75
2023/06/07 13:58:17;;;;;;;2.40;2.30;;;29.70;85.50;;;;;;5080532;28;20476;-76
2023/06/07 14:01:07;;;;;;;2.30;2.20;;;29.00;85.90;;;;;;5082798;28;20517;-75
2023/06/07 14:03:51;;;;;;;2.37;2.17;;;28.50;87.90;;;;;;5077018;28;20562;-76